createdAt,value
2022-08-15T00:00:44.541Z,10.77
2022-08-15T00:04:00.695Z,10.55
2022-08-15T00:06:38.157Z,10.00
2022-08-15T00:09:20.708Z,9.80
2022-08-15T00:11:58.009Z,8.68
2022-08-15T00:14:33.847Z,9.52
2022-08-15T00:17:10.967Z,10.63
2022-08-15T00:19:49.736Z,11.60
2022-08-15T00:22:24.177Z,11.70
2022-08-15T00:25:06.682Z,11.65
2022-08-15T00:27:42.338Z,12.27
2022-08-15T00:30:24.598Z,10.68
2022-08-15T00:33:18.455Z,10.10
2022-08-15T00:36:02.802Z,11.45
2022-08-15T00:38:39.925Z,11.50
2022-08-15T00:41:35.812Z,12.07
2022-08-15T00:44:15.840Z,13.07
2022-08-15T00:46:57.453Z,13.35
2022-08-15T00:50:01.691Z,12.68
2022-08-15T00:52:30.301Z,13.50
2022-08-15T00:55:09.346Z,13.15
2022-08-15T00:57:58.912Z,11.57
2022-08-15T01:00:45.250Z,13.43
2022-08-15T01:03:29.180Z,13.27
2022-08-15T01:06:02.785Z,13.18
2022-08-15T01:08:39.520Z,13.23
2022-08-15T01:11:19.708Z,13.55
2022-08-15T01:14:03.914Z,13.35
2022-08-15T01:16:42.776Z,13.10
2022-08-15T01:19:22.913Z,14.32
2022-08-15T01:22:06.687Z,13.70
2022-08-15T01:25:17.095Z,13.27
2022-08-15T01:27:53.023Z,11.68
2022-08-15T01:31:00.714Z,14.50
2022-08-15T01:33:23.102Z,14.90
2022-08-15T01:35:56.359Z,14.15
2022-08-15T01:38:59.864Z,12.48
2022-08-15T01:41:54.358Z,11.85
2022-08-15T01:44:37.283Z,13.20
2022-08-15T01:48:02.264Z,13.65
2022-08-15T01:50:58.607Z,12.75
2022-08-15T01:53:44.469Z,12.65
2022-08-15T01:56:35.727Z,13.35
2022-08-15T01:59:22.482Z,11.43
2022-08-15T02:02:42.710Z,12.90
2022-08-15T02:05:02.698Z,12.25
2022-08-15T02:07:37.628Z,16.50
2022-08-15T02:10:22.535Z,15.93
2022-08-15T02:13:12.411Z,15.40
2022-08-15T02:15:48.111Z,14.80
2022-08-15T02:18:22.899Z,14.63
2022-08-15T02:20:55.915Z,13.43
2022-08-15T02:23:30.117Z,15.13
2022-08-15T02:26:09.939Z,13.55
2022-08-15T02:28:44.346Z,13.40
2022-08-15T02:31:23.771Z,12.10
2022-08-15T02:33:59.891Z,12.05
2022-08-15T02:36:53.204Z,12.02
2022-08-15T02:39:27.011Z,12.43
2022-08-15T02:41:59.125Z,12.00
2022-08-15T02:44:33.481Z,12.18
2022-08-15T02:47:08.828Z,11.75
2022-08-15T02:49:49.175Z,12.75
2022-08-15T02:52:22.279Z,15.65
2022-08-15T02:54:58.766Z,16.52
2022-08-15T02:57:58.912Z,15.63
2022-08-15T03:00:27.735Z,15.45
2022-08-15T03:03:06.728Z,15.60
2022-08-15T03:05:43.501Z,15.20
2022-08-15T03:08:17.036Z,15.52
2022-08-15T03:10:53.739Z,15.98
2022-08-15T03:13:39.629Z,13.40
2022-08-15T03:16:20.247Z,14.40
2022-08-15T03:18:56.417Z,15.43
2022-08-15T03:21:28.646Z,16.10
2022-08-15T03:24:00.895Z,16.35
2022-08-15T03:26:46.469Z,14.77
2022-08-15T03:29:20.537Z,13.98
2022-08-15T03:31:54.322Z,13.88
2022-08-15T03:34:29.400Z,14.00
2022-08-15T03:37:03.203Z,13.85
2022-08-15T03:39:35.525Z,14.60
2022-08-15T03:42:19.318Z,13.40
2022-08-15T03:44:51.446Z,12.73
2022-08-15T03:47:23.394Z,13.35
2022-08-15T03:50:24.082Z,13.10
2022-08-15T03:52:52.108Z,15.93
2022-08-15T03:55:26.063Z,14.75
2022-08-15T03:58:03.380Z,14.20
2022-08-15T04:00:40.263Z,13.23
2022-08-15T04:03:17.654Z,14.00
2022-08-15T04:05:53.940Z,13.82
2022-08-15T04:08:44.580Z,15.52
2022-08-15T04:11:35.619Z,13.77
2022-08-15T04:14:31.668Z,15.98
2022-08-15T04:17:10.632Z,15.20
2022-08-15T04:19:49.626Z,14.65
2022-08-15T04:22:38.245Z,13.07
2022-08-15T04:25:18.522Z,15.38
2022-08-15T04:27:53.976Z,13.55
2022-08-15T04:30:30.556Z,13.82
2022-08-15T04:33:18.708Z,14.07
2022-08-15T04:36:02.704Z,13.05
2022-08-15T04:38:41.273Z,13.30
2022-08-15T04:41:19.331Z,13.68
2022-08-15T04:44:04.972Z,12.95
2022-08-15T04:46:37.524Z,13.13
2022-08-15T04:49:13.558Z,12.73
2022-08-15T04:51:48.950Z,14.15
2022-08-15T04:54:21.582Z,12.82
2022-08-15T04:56:53.413Z,13.30
2022-08-15T04:59:35.155Z,12.82
2022-08-15T05:02:55.549Z,12.63
2022-08-15T05:05:07.847Z,12.30
2022-08-15T05:07:58.262Z,13.63
2022-08-15T05:10:31.120Z,12.85
2022-08-15T05:13:11.578Z,12.63
2022-08-15T05:15:53.540Z,13.07
2022-08-15T05:18:27.905Z,13.55
2022-08-15T05:21:00.283Z,13.68
2022-08-15T05:23:43.064Z,12.43
2022-08-15T05:26:52.857Z,13.23
2022-08-15T05:29:14.165Z,12.85
2022-08-15T05:31:48.208Z,13.05
2022-08-15T05:34:37.954Z,13.05
2022-08-15T05:37:15.913Z,13.48
2022-08-15T05:39:47.905Z,12.95
2022-08-15T05:42:44.673Z,12.90
2022-08-15T05:45:41.787Z,13.13
2022-08-15T05:48:24.812Z,13.30
2022-08-15T05:51:19.215Z,12.55
2022-08-15T05:54:03.804Z,12.90
2022-08-15T05:57:05.112Z,12.30
2022-08-15T05:59:48.679Z,12.95
2022-08-15T06:02:44.920Z,11.57
2022-08-15T06:05:35.736Z,11.88
2022-08-15T06:08:48.498Z,12.85
2022-08-15T06:11:16.748Z,12.77
2022-08-15T06:13:56.962Z,12.23
2022-08-15T06:16:47.624Z,12.65
2022-08-15T06:19:34.262Z,11.88
2022-08-15T06:22:19.120Z,12.05
2022-08-15T06:25:15.820Z,11.30
2022-08-15T06:28:53.688Z,10.63
2022-08-15T06:31:40.361Z,10.73
2022-08-15T06:34:54.524Z,10.88
2022-08-15T06:38:00.313Z,10.00
2022-08-15T06:41:07.549Z,10.70
2022-08-15T06:43:44.688Z,9.57
2022-08-15T06:46:45.754Z,8.95
2022-08-15T06:49:15.773Z,10.02
2022-08-15T06:51:51.049Z,10.25
2022-08-15T06:54:37.238Z,8.50
2022-08-15T06:57:27.862Z,9.73
2022-08-15T07:00:34.585Z,9.00
2022-08-15T07:03:20.669Z,9.25
2022-08-15T07:09:01.447Z,9.18
2022-08-15T07:11:54.743Z,9.30
2022-08-15T07:14:44.039Z,8.02
2022-08-15T07:17:43.387Z,8.90
2022-08-15T07:20:38.367Z,8.57
2022-08-15T07:23:39.686Z,9.43
2022-08-15T07:26:19.857Z,8.07
2022-08-15T07:29:05.327Z,9.98
2022-08-15T07:32:03.951Z,9.48
2022-08-15T07:34:30.565Z,9.13
2022-08-15T07:37:06.707Z,9.88
2022-08-15T07:39:49.310Z,9.98
2022-08-15T07:42:27.941Z,10.55
2022-08-15T07:45:10.927Z,10.35
2022-08-15T07:47:57.684Z,10.38
2022-08-15T07:50:39.565Z,10.70
2022-08-15T07:53:18.244Z,10.75
2022-08-15T07:56:38.108Z,10.73
2022-08-15T07:59:23.551Z,11.15
2022-08-15T08:02:08.125Z,11.35
2022-08-15T08:04:40.230Z,11.18
2022-08-15T08:07:34.016Z,10.85
2022-08-15T08:10:23.690Z,11.25
2022-08-15T08:13:36.321Z,10.35
2022-08-15T08:16:31.366Z,11.32
2022-08-15T08:19:09.791Z,10.48
2022-08-15T08:22:14.340Z,10.30
2022-08-15T08:26:01.065Z,11.43
2022-08-15T08:28:44.277Z,10.55
2022-08-15T08:31:37.950Z,10.63
2022-08-15T08:34:32.183Z,10.35
2022-08-15T08:37:26.526Z,10.45
2022-08-15T08:40:30.242Z,10.55
2022-08-15T08:43:09.561Z,10.43
2022-08-15T08:45:57.056Z,10.52
2022-08-15T08:49:01.448Z,10.63
2022-08-15T08:51:59.288Z,10.50
2022-08-15T08:55:00.839Z,10.25
2022-08-15T08:57:43.344Z,10.15
2022-08-15T09:00:31.563Z,10.00
2022-08-15T09:03:11.449Z,10.15
2022-08-15T09:05:50.334Z,10.70
2022-08-15T09:08:39.880Z,11.02
2022-08-15T09:11:35.578Z,10.18
2022-08-15T09:14:56.931Z,10.18
2022-08-15T09:17:35.729Z,11.15
2022-08-15T09:20:19.817Z,10.70
2022-08-15T09:22:58.192Z,11.07
2022-08-15T09:25:37.565Z,10.75
2022-08-15T09:28:29.823Z,11.40
2022-08-15T09:31:23.555Z,10.43
2022-08-15T09:34:36.622Z,10.27
2022-08-15T09:37:17.652Z,11.15
2022-08-15T09:41:12.411Z,10.52
2022-08-15T09:44:36.955Z,11.25
2022-08-15T09:47:13.913Z,10.98
2022-08-15T09:50:37.255Z,10.88
2022-08-15T09:53:52.307Z,10.93
2022-08-15T09:56:39.314Z,11.63
2022-08-15T09:59:27.766Z,11.73
2022-08-15T10:02:36.382Z,11.73
2022-08-15T10:05:15.320Z,12.00
2022-08-15T10:08:29.074Z,12.35
2022-08-15T10:11:14.032Z,11.45
2022-08-15T10:13:48.390Z,12.45
2022-08-15T10:16:44.294Z,11.82
2022-08-15T10:20:00.390Z,12.32
2022-08-15T10:22:45.933Z,12.18
2022-08-15T10:25:23.382Z,12.05
2022-08-15T10:28:00.871Z,12.88
2022-08-15T10:31:02.517Z,13.05
2022-08-15T10:33:35.283Z,12.80
2022-08-15T10:36:20.880Z,12.00
2022-08-15T10:39:54.629Z,12.65
2022-08-15T10:43:03.755Z,12.65
2022-08-15T10:45:57.333Z,12.35
2022-08-15T10:48:50.155Z,12.90
2022-08-15T10:51:49.176Z,13.07
2022-08-15T10:54:48.859Z,11.98
2022-08-15T10:57:25.864Z,12.15
2022-08-15T11:00:35.336Z,13.23
2022-08-15T11:03:10.593Z,12.65
2022-08-15T11:05:45.184Z,13.02
2022-08-15T11:08:19.884Z,13.52
2022-08-15T11:11:10.763Z,12.95
2022-08-15T11:13:45.183Z,12.88
2022-08-15T11:16:32.642Z,12.35
2022-08-15T11:20:05.431Z,12.05
2022-08-15T11:22:52.684Z,12.40
2022-08-15T11:25:33.270Z,12.40
2022-08-15T11:28:37.015Z,12.40
2022-08-15T11:31:18.602Z,12.35
2022-08-15T11:33:52.871Z,12.23
2022-08-15T11:36:29.486Z,12.35
2022-08-15T11:39:20.274Z,11.65
2022-08-15T11:42:02.159Z,12.38
2022-08-15T11:44:49.805Z,12.63
2022-08-15T11:47:22.402Z,12.45
2022-08-15T11:49:59.950Z,12.98
2022-08-15T11:52:45.953Z,12.35
2022-08-15T11:55:31.816Z,12.65
2022-08-15T11:58:28.801Z,13.38
2022-08-15T12:01:22.044Z,12.68
2022-08-15T12:04:41.439Z,12.77
2022-08-15T12:06:58.598Z,13.38
2022-08-15T12:09:42.969Z,13.30
2022-08-15T12:12:41.908Z,12.50
2022-08-15T12:15:38.184Z,12.57
2022-08-15T12:18:32.715Z,12.57
2022-08-15T12:21:14.135Z,12.38
2022-08-15T12:23:54.361Z,12.52
2022-08-15T12:26:39.501Z,12.73
2022-08-15T12:29:25.599Z,12.77
2022-08-15T12:32:00.133Z,13.00
2022-08-15T12:34:40.058Z,12.65
2022-08-15T12:37:39.504Z,13.07
2022-08-15T12:40:57.533Z,12.95
2022-08-15T12:43:04.285Z,13.43
2022-08-15T12:45:41.005Z,12.63
2022-08-15T12:48:35.549Z,12.77
2022-08-15T12:51:10.968Z,11.10
2022-08-15T12:53:43.076Z,11.98
2022-08-15T12:56:43.694Z,11.23
2022-08-15T12:59:12.501Z,11.93
2022-08-15T13:01:56.780Z,12.00
2022-08-15T13:04:54.630Z,11.95
2022-08-15T13:07:31.524Z,11.95
2022-08-15T13:10:56.209Z,11.75
2022-08-15T13:12:59.027Z,12.05
2022-08-15T13:15:33.992Z,11.95
2022-08-15T13:18:10.057Z,12.18
2022-08-15T13:21:06.270Z,11.55
2022-08-15T13:24:12.221Z,12.68
2022-08-15T13:26:39.830Z,11.70
2022-08-15T13:29:20.385Z,11.50
2022-08-15T13:31:55.283Z,11.07
2022-08-15T13:34:36.863Z,11.10
2022-08-15T13:37:18.264Z,11.13
2022-08-15T13:40:20.019Z,10.48
2022-08-15T13:42:58.775Z,10.32
2022-08-15T13:45:56.907Z,11.65
2022-08-15T13:48:36.452Z,12.00
2022-08-15T13:51:20.875Z,10.77
2022-08-15T13:54:33.877Z,10.98
2022-08-15T13:59:45.232Z,10.68
2022-08-15T14:02:36.030Z,11.68
2022-08-15T14:05:17.497Z,10.55
2022-08-15T14:07:50.829Z,11.43
2022-08-15T14:11:00.375Z,11.60
2022-08-15T14:13:22.559Z,11.77
2022-08-15T14:16:26.829Z,11.50
2022-08-15T14:18:54.205Z,12.68
2022-08-15T14:21:33.541Z,11.05
2022-08-15T14:24:20.983Z,11.13
2022-08-15T14:27:23.409Z,10.50
2022-08-15T14:29:55.844Z,9.95
2022-08-15T14:32:51.219Z,9.68
2022-08-15T14:38:21.793Z,8.50
2022-08-15T14:40:55.459Z,8.68
2022-08-15T14:43:28.377Z,9.05
2022-08-15T14:46:33.207Z,9.23
2022-08-15T14:48:59.843Z,9.75
2022-08-15T14:52:11.527Z,8.70
2022-08-15T14:54:44.220Z,10.02
2022-08-15T14:57:25.457Z,9.05
2022-08-15T15:00:03.907Z,9.13
2022-08-15T15:02:39.825Z,9.18
2022-08-15T15:05:18.391Z,8.80
2022-08-15T15:08:19.922Z,8.45
2022-08-15T15:10:52.866Z,8.70
2022-08-15T15:13:27.979Z,8.82
2022-08-15T15:16:42.141Z,9.18
2022-08-15T15:19:00.081Z,9.43
2022-08-15T15:21:33.832Z,9.35
2022-08-15T15:24:12.667Z,12.75
2022-08-15T15:26:55.786Z,10.70
2022-08-15T15:29:46.834Z,10.48
2022-08-15T15:32:30.457Z,12.52
2022-08-15T15:35:08.329Z,13.50
2022-08-15T15:37:41.381Z,14.82
2022-08-15T15:40:20.646Z,13.60
2022-08-15T15:42:55.551Z,12.13
2022-08-15T15:45:27.492Z,11.50
2022-08-15T15:48:03.291Z,11.00
2022-08-15T15:50:35.734Z,11.20
2022-08-15T15:53:23.373Z,10.60
2022-08-15T15:55:59.731Z,10.52
2022-08-15T15:58:52.317Z,10.25
2022-08-15T16:02:44.697Z,12.65
2022-08-15T16:04:28.366Z,12.80
2022-08-15T16:07:04.000Z,11.90
2022-08-15T16:09:41.041Z,11.88
2022-08-15T16:12:59.553Z,8.40
2022-08-15T16:15:43.696Z,7.75
2022-08-15T16:18:29.563Z,6.90
2022-08-15T16:21:13.208Z,8.98
2022-08-15T16:23:53.145Z,9.05
2022-08-15T16:26:54.162Z,8.63
2022-08-15T16:29:37.905Z,9.05
2022-08-15T16:32:32.317Z,10.68
2022-08-15T16:35:30.190Z,10.30
2022-08-15T16:39:03.548Z,10.38
2022-08-15T16:41:36.813Z,11.35
2022-08-15T16:44:28.340Z,11.23
2022-08-15T16:47:25.913Z,11.95
2022-08-15T16:50:20.408Z,10.93
2022-08-15T16:53:10.813Z,10.23
2022-08-15T16:56:30.345Z,9.93
2022-08-15T16:59:23.565Z,10.93
2022-08-15T17:03:02.625Z,12.27
2022-08-15T17:05:16.999Z,16.20
2022-08-15T17:07:58.054Z,13.73
2022-08-15T17:10:41.823Z,12.98
2022-08-15T17:13:27.708Z,10.48
2022-08-15T17:16:04.590Z,10.48
2022-08-15T17:18:46.203Z,10.02
2022-08-15T17:21:38.856Z,10.55
2022-08-15T17:24:54.968Z,8.60
2022-08-15T17:27:34.687Z,7.53
2022-08-15T17:30:57.440Z,7.03
2022-08-15T17:33:42.808Z,6.20
2022-08-15T17:36:18.247Z,5.65
2022-08-15T17:38:53.693Z,5.35
2022-08-15T17:41:30.406Z,5.10
2022-08-15T17:44:50.307Z,4.60
2022-08-15T17:47:19.464Z,5.20
2022-08-15T17:50:00.414Z,4.63
2022-08-15T17:52:45.321Z,4.07
2022-08-15T17:55:53.901Z,5.05
2022-08-15T17:58:42.385Z,4.43
2022-08-15T18:01:14.613Z,5.05
2022-08-15T18:03:47.227Z,5.60
2022-08-15T18:06:19.701Z,6.43
2022-08-15T18:08:56.988Z,5.25
2022-08-15T18:11:39.711Z,5.50
2022-08-15T18:14:39.575Z,5.43
2022-08-15T18:17:27.482Z,4.95
2022-08-15T18:20:26.888Z,4.78
2022-08-15T18:23:19.849Z,5.28
2022-08-15T18:25:56.537Z,4.93
2022-08-15T18:28:32.587Z,5.18
2022-08-15T18:31:35.622Z,5.18
2022-08-15T18:34:36.808Z,4.60
2022-08-15T18:37:09.140Z,4.90
2022-08-15T18:40:02.319Z,5.18
2022-08-15T18:43:05.871Z,5.00
2022-08-15T18:45:45.094Z,5.45
2022-08-15T18:48:35.844Z,5.40
2022-08-15T18:51:16.750Z,5.72
2022-08-15T18:54:47.199Z,5.97
2022-08-15T18:57:25.263Z,6.63
2022-08-15T19:00:07.275Z,7.28
2022-08-15T19:02:48.727Z,6.57
2022-08-15T19:05:22.265Z,7.43
2022-08-15T19:08:14.724Z,6.32
2022-08-15T19:11:00.896Z,6.70
2022-08-15T19:13:44.201Z,6.65
2022-08-15T19:16:30.062Z,6.40
2022-08-15T19:19:25.990Z,6.95
2022-08-15T19:22:00.624Z,6.97
2022-08-15T19:24:34.407Z,7.20
2022-08-15T19:27:20.883Z,7.63
2022-08-15T19:30:01.908Z,7.85
2022-08-15T19:32:40.728Z,7.88
2022-08-15T19:35:42.255Z,8.40
2022-08-15T19:38:32.339Z,7.63
2022-08-15T19:41:58.393Z,7.30
2022-08-15T19:44:54.645Z,7.35
2022-08-15T19:47:42.472Z,8.30
2022-08-15T19:50:39.451Z,9.57
2022-08-15T19:53:41.637Z,9.75
2022-08-15T19:56:51.433Z,8.73
2022-08-15T19:59:47.179Z,8.25
2022-08-15T20:02:30.865Z,9.05
2022-08-15T20:06:06.898Z,8.75
2022-08-15T20:09:06.156Z,7.80
2022-08-15T20:12:04.728Z,8.27
2022-08-15T20:14:51.761Z,7.55
2022-08-15T20:18:07.503Z,8.73
2022-08-15T20:21:11.231Z,8.45
2022-08-15T20:23:58.406Z,8.60
2022-08-15T20:26:41.069Z,8.40
2022-08-15T20:29:47.298Z,8.77
2022-08-15T20:32:36.348Z,9.07
2022-08-15T20:35:25.086Z,9.27
2022-08-15T20:38:32.871Z,9.50
2022-08-15T20:41:17.924Z,8.90
2022-08-15T20:44:31.889Z,8.93
2022-08-15T20:47:12.603Z,8.85
2022-08-15T20:49:48.175Z,9.20
2022-08-15T20:52:41.337Z,9.13
2022-08-15T20:55:32.218Z,9.02
2022-08-15T20:58:19.172Z,9.23
2022-08-15T21:01:17.558Z,9.75
2022-08-15T21:04:11.259Z,8.93
2022-08-15T21:07:09.822Z,9.52
2022-08-15T21:10:02.508Z,10.00
2022-08-15T21:13:00.169Z,9.05
2022-08-15T21:15:41.945Z,10.75
2022-08-15T21:18:48.603Z,10.32
2022-08-15T21:21:23.770Z,10.15
2022-08-15T21:24:02.063Z,10.60
2022-08-15T21:27:11.482Z,10.60
2022-08-15T21:29:46.960Z,11.30
2022-08-15T21:32:33.266Z,11.85
2022-08-15T21:35:18.523Z,10.38
2022-08-15T21:37:53.732Z,11.25
2022-08-15T21:40:46.139Z,11.75
2022-08-15T21:43:44.539Z,11.25
2022-08-15T21:46:52.022Z,11.00
2022-08-15T21:49:38.444Z,11.25
2022-08-15T21:52:32.366Z,11.25
2022-08-15T21:55:22.531Z,11.77
2022-08-15T21:58:32.600Z,11.30
2022-08-15T22:01:34.454Z,12.18
2022-08-15T22:04:21.962Z,12.30
2022-08-15T22:06:54.987Z,13.05
2022-08-15T22:09:37.133Z,12.68
2022-08-15T22:12:30.363Z,12.60
2022-08-15T22:15:05.591Z,12.27
2022-08-15T22:17:38.642Z,11.70
2022-08-15T22:20:27.513Z,11.55
2022-08-15T22:23:05.918Z,13.13
2022-08-15T22:25:42.927Z,13.45
2022-08-15T22:28:51.684Z,15.07
2022-08-15T22:31:15.297Z,14.57
2022-08-15T22:33:50.738Z,15.02
2022-08-15T22:36:23.632Z,15.25
2022-08-15T22:39:00.214Z,14.82
2022-08-15T22:41:34.547Z,15.95
2022-08-15T22:44:29.758Z,15.00
2022-08-15T22:47:03.134Z,15.60
2022-08-15T22:49:44.000Z,14.75
2022-08-15T22:52:22.880Z,14.63
2022-08-15T22:54:59.151Z,14.88
2022-08-15T22:57:57.946Z,13.60
2022-08-15T23:00:35.117Z,14.07
2022-08-15T23:03:07.983Z,13.57
2022-08-15T23:05:46.725Z,15.35
2022-08-15T23:08:27.793Z,13.98
2022-08-15T23:11:17.306Z,13.30
2022-08-15T23:14:23.367Z,14.23
2022-08-15T23:17:14.497Z,13.30
2022-08-15T23:20:03.261Z,12.85
2022-08-15T23:22:38.417Z,13.77
2022-08-15T23:25:19.091Z,12.55
2022-08-15T23:27:52.461Z,12.55
2022-08-15T23:30:44.956Z,12.38
2022-08-15T23:33:27.600Z,12.90
2022-08-15T23:36:11.478Z,12.25
2022-08-15T23:38:43.662Z,12.80
2022-08-15T23:41:23.566Z,13.27
2022-08-15T23:43:57.221Z,11.38
2022-08-15T23:46:36.778Z,12.77
2022-08-15T23:49:09.768Z,11.90
2022-08-15T23:51:42.920Z,14.13
2022-08-15T23:54:22.227Z,14.50
2022-08-15T23:56:55.549Z,14.32
2022-08-15T23:59:34.198Z,14.52
